Time;durP1;ratioP1;P1;durP2;ratioP2;P2;SDS_P1;SDS_P2;PMS_P1;PMS_P2;Temp;Humidity;BMP_temperature;BMP_pressure;BME280_temperature;BME280_humidity;BME280_pressure;Samples;Min_cycle;Max_cycle;Signal;HPM_P1;HPM_P2
2021/05/02 00:01:13;;;;;;;4.45;1.82;;;;;;;4.42;61.09;99448.47;1692458;83;21086;-74
2021/05/02 00:03:41;;;;;;;4.00;1.82;;;;;;;4.42;61.02;99450.22;1693916;83;21168;-74
2021/05/02 00:06:08;;;;;;;3.37;1.57;;;;;;;4.40;61.07;99441.67;1693727;83;21216;-74
2021/05/02 00:08:36;;;;;;;3.92;2.33;;;;;;;4.41;61.09;99445.95;1693194;83;21763;-74
2021/05/02 00:11:06;;;;;;;5.25;2.75;;;;;;;4.38;61.09;99444.73;1693183;83;21274;-74
2021/05/02 00:13:33;;;;;;;6.22;2.40;;;;;;;4.37;61.17;99444.31;1689189;83;21182;-74
2021/05/02 00:16:00;;;;;;;2.62;1.98;;;;;;;4.36;61.15;99445.22;1693744;83;21196;-74
2021/05/02 00:18:28;;;;;;;4.22;1.90;;;;;;;4.33;61.17;99441.42;1690484;83;21437;-74
2021/05/02 00:20:56;;;;;;;4.47;2.22;;;;;;;4.32;61.20;99438.44;1689646;83;21660;-74
2021/05/02 00:23:24;;;;;;;2.67;1.92;;;;;;;4.32;61.24;99437.16;1696844;83;21161;-73
2021/05/02 00:25:51;;;;;;;;;;;;;;;4.33;61.36;99442.71;1705080;83;21197;-74
2021/05/02 00:28:19;;;;;;;3.77;1.98;;;;;;;4.35;61.46;99431.90;1692644;82;20298;-74
2021/05/02 00:30:47;;;;;;;5.37;2.05;;;;;;;4.36;61.42;99436.17;1694596;82;21325;-74
2021/05/02 00:33:14;;;;;;;2.45;2.02;;;;;;;4.37;61.47;99437.44;1681795;84;21666;-74
2021/05/02 00:35:42;;;;;;;4.03;2.02;;;;;;;4.38;61.50;99430.52;1715536;82;21653;-74
2021/05/02 00:38:10;;;;;;;2.05;1.75;;;;;;;4.38;61.49;99433.11;1717772;82;21203;-73
2021/05/02 00:40:40;;;;;;;2.65;1.82;;;;;;;4.36;61.57;99433.58;1705902;82;21159;-74
2021/05/02 00:43:13;;;;;;;3.95;1.87;;;;;;;4.37;61.60;99437.85;1699668;82;21327;-74
2021/05/02 00:46:09;;;;;;;6.72;2.33;;;;;;;4.36;61.67;99434.88;1692758;83;21264;-74
2021/05/02 00:49:15;;;;;;;5.33;2.20;;;;;;;4.33;61.71;99429.79;1691964;83;21654;-74
2021/05/02 00:51:47;;;;;;;2.90;1.90;;;;;;;4.29;61.85;99428.19;1691259;83;21202;-74
2021/05/02 00:54:20;;;;;;;6.05;2.33;;;;;;;4.24;61.97;99426.55;1716576;82;21183;-74
2021/05/02 00:57:07;;;;;;;4.03;2.17;;;;;;;4.20;62.03;99418.50;1689295;83;21389;-74
2021/05/02 00:59:45;;;;;;;3.60;2.40;;;;;;;4.17;62.12;99417.28;1695563;83;28344;-73
2021/05/02 01:02:22;;;;;;;4.95;2.22;;;;;;;4.17;62.29;99414.70;1781855;78;22710;-73
2021/05/02 01:04:53;;;;;;;5.97;2.33;;;;;;;4.11;62.30;99418.70;1742978;81;21046;-73
2021/05/02 01:07:24;;;;;;;6.33;2.67;;;;;;;4.04;62.42;99417.19;1743461;80;21413;-74
2021/05/02 01:09:51;;;;;;;3.85;2.20;;;;;;;4.01;62.45;99426.31;1745802;81;21040;-74
2021/05/02 01:12:20;;;;;;;4.15;2.50;;;;;;;4.00;62.60;99422.02;1747498;81;21183;-74
2021/05/02 01:14:54;;;;;;;4.25;1.87;;;;;;;3.96;62.62;99415.24;1742508;81;20971;-74
2021/05/02 01:17:23;;;;;;;3.65;1.72;;;;;;;3.92;62.69;99411.02;1736153;81;21146;-74
2021/05/02 01:19:49;;;;;;;3.00;2.12;;;;;;;3.89;62.76;99408.52;1743238;81;22063;-74
2021/05/02 01:22:20;;;;;;;6.53;2.90;;;;;;;3.86;62.80;99407.30;1750618;81;28922;-74
2021/05/02 01:24:51;;;;;;;6.33;2.60;;;;;;;3.83;62.86;99399.64;1749258;81;21038;-74
2021/05/02 01:27:28;;;;;;;4.75;2.58;;;;;;;3.76;62.93;99398.50;1743610;81;21089;-74
2021/05/02 01:29:56;;;;;;;5.55;2.90;;;;;;;3.69;62.98;99396.94;1745751;80;21328;-74
2021/05/02 01:32:26;;;;;;;4.40;2.90;;;;;;;3.62;63.00;99397.99;1741451;81;21210;-74
2021/05/02 01:34:54;;;;;;;3.62;2.40;;;;;;;3.56;63.10;99388.66;1746374;80;21258;-74
2021/05/02 01:37:21;;;;;;;4.55;2.92;;;;;;;3.52;63.18;99382.31;1748597;81;21579;-75
2021/05/02 01:39:49;;;;;;;5.45;2.65;;;;;;;3.48;63.25;99384.58;1747658;81;21081;-75
2021/05/02 01:42:17;;;;;;;3.72;2.40;;;;;;;3.45;63.28;99373.03;1750421;81;21267;-75
2021/05/02 01:44:44;;;;;;;7.28;2.80;;;;;;;3.41;63.42;99380.42;1748895;80;21309;-74
2021/05/02 01:47:18;;;;;;;5.37;2.65;;;;;;;3.35;63.38;99371.94;1748066;81;21203;-74
2021/05/02 01:49:55;;;;;;;5.50;2.87;;;;;;;3.31;63.56;99370.33;1738957;80;21125;-75
2021/05/02 01:52:23;;;;;;;4.15;2.80;;;;;;;3.28;63.67;99375.56;1748968;80;21157;-75
2021/05/02 01:54:50;;;;;;;8.00;2.85;;;;;;;3.26;63.79;99374.73;1741229;81;21147;-74
2021/05/02 01:57:25;;;;;;;4.65;2.67;;;;;;;3.26;63.79;99382.48;1742669;81;22178;-74
2021/05/02 01:59:54;;;;;;;5.42;2.65;;;;;;;3.24;64.04;99376.50;1749528;81;21174;-74
2021/05/02 02:02:28;;;;;;;7.10;2.83;;;;;;;3.21;63.97;99371.41;1751201;80;21496;-75
2021/05/02 02:04:58;;;;;;;6.12;2.90;;;;;;;3.23;64.16;99367.08;1733828;80;21159;-74
2021/05/02 02:07:26;;;;;;;6.28;2.85;;;;;;;3.22;64.21;99361.52;1760583;80;21180;-74
2021/05/02 02:09:53;;;;;;;3.47;2.00;;;;;;;3.25;64.29;99365.31;1747484;81;21288;-74
2021/05/02 02:12:20;;;;;;;4.17;2.30;;;;;;;3.28;64.49;99352.34;1748558;80;21129;-74
2021/05/02 02:14:51;;;;;;;4.58;2.75;;;;;;;3.34;64.51;99354.77;1755983;81;20982;-74
2021/05/02 02:17:20;;;;;;;4.00;2.20;;;;;;;3.41;64.69;99349.45;1756520;81;21002;-74
2021/05/02 02:19:47;;;;;;;4.15;2.83;;;;;;;3.45;64.80;99346.77;1756875;81;21023;-74
2021/05/02 02:22:17;;;;;;;5.40;2.70;;;;;;;3.50;64.94;99349.22;1757228;81;21279;-74
2021/05/02 02:24:48;;;;;;;4.45;2.30;;;;;;;3.56;65.10;99343.94;1755236;81;20983;-75
2021/05/02 02:27:15;;;;;;;6.35;2.30;;;;;;;3.61;65.12;99332.19;1753022;81;21167;-74
2021/05/02 02:29:48;;;;;;;4.80;2.40;;;;;;;3.63;65.22;99324.81;1750573;81;21239;-74
2021/05/02 02:32:18;;;;;;;3.45;2.45;;;;;;;3.68;65.31;99326.00;1750773;80;21282;-74
2021/05/02 02:34:49;;;;;;;4.70;2.00;;;;;;;3.71;65.43;99322.88;1749142;81;21118;-75
2021/05/02 02:37:20;;;;;;;3.65;2.10;;;;;;;3.78;65.60;99326.14;1750793;80;21620;-74
2021/05/02 02:39:52;;;;;;;3.25;2.20;;;;;;;3.79;65.60;99317.08;1755127;81;21056;-74
2021/05/02 02:42:22;;;;;;;5.55;2.20;;;;;;;3.81;65.73;99320.48;1751395;80;21798;-74
2021/05/02 02:44:57;;;;;;;7.10;2.00;;;;;;;3.84;65.74;99313.52;1754552;80;21234;-73
2021/05/02 02:47:36;;;;;;;5.40;1.98;;;;;;;3.87;65.83;99312.17;1756597;81;21638;-74
2021/05/02 02:50:15;;;;;;;3.80;2.20;;;;;;;3.94;66.07;99318.84;1809823;77;27876;-73
2021/05/02 02:52:55;;;;;;;4.05;2.37;;;;;;;3.97;66.01;99313.59;1804879;78;22252;-73
2021/05/02 02:55:25;;;;;;;5.67;2.22;;;;;;;4.00;66.07;99319.97;1797691;78;21201;-74
2021/05/02 02:57:57;;;;;;;4.92;2.83;;;;;;;4.00;66.24;99313.52;1795653;78;21092;-74
2021/05/02 03:00:28;;;;;;;4.08;2.50;;;;;;;3.99;66.29;99309.24;1797373;78;21045;-74
2021/05/02 03:03:09;;;;;;;3.83;2.33;;;;;;;3.95;66.38;99315.36;1769106;80;21046;-74
2021/05/02 03:05:40;;;;;;;4.80;2.52;;;;;;;3.94;66.42;99311.09;1767254;80;21219;-74
2021/05/02 03:08:09;;;;;;;4.83;2.52;;;;;;;3.92;66.54;99308.58;1763371;80;21213;-74
2021/05/02 03:10:42;;;;;;;4.25;2.80;;;;;;;3.95;66.64;99302.45;1765797;80;21941;-74
2021/05/02 03:13:12;;;;;;;5.55;2.37;;;;;;;3.94;66.69;99306.77;1745070;80;21021;-75
2021/05/02 03:15:40;;;;;;;3.25;2.25;;;;;;;3.98;66.78;99300.66;1747789;81;21645;-75
2021/05/02 03:18:11;;;;;;;4.03;2.42;;;;;;;4.00;66.85;99291.55;1751305;81;21258;-75
2021/05/02 03:20:39;;;;;;;3.52;2.30;;;;;;;4.04;67.01;99289.30;1746047;81;21428;-75
2021/05/02 03:23:19;;;;;;;6.42;2.50;;;;;;;4.10;67.09;99294.30;1742506;81;21178;-74
2021/05/02 03:27:46;;;;;;;4.75;2.98;;;;;;;4.18;67.28;99285.05;1772621;78;22835;-73
2021/05/02 03:30:16;;;;;;;3.72;2.65;;;;;;;4.16;67.16;99285.08;1745119;80;21629;-74
2021/05/02 03:32:50;;;;;;;7.67;3.00;;;;;;;4.18;67.16;99287.18;1733604;80;21212;-75
2021/05/02 03:35:19;;;;;;;3.15;2.52;;;;;;;4.20;67.27;99284.12;1743143;80;21614;-75
2021/05/02 03:38:23;;;;;;;4.87;2.67;;;;;;;4.22;67.23;99274.56;1748847;80;21147;-75
2021/05/02 03:40:54;;;;;;;4.12;2.92;;;;;;;4.24;67.36;99271.50;1744364;80;21255;-75
2021/05/02 03:43:22;;;;;;;5.10;2.90;;;;;;;4.30;67.45;99274.80;1742230;80;21052;-75
2021/05/02 03:45:49;;;;;;;7.33;2.85;;;;;;;4.35;67.49;99272.94;1736749;81;21199;-75
2021/05/02 03:48:16;;;;;;;6.22;2.77;;;;;;;4.39;68.34;99270.20;1750855;80;21372;-74
2021/05/02 03:50:43;;;;;;;6.55;2.92;;;;;;;4.43;67.58;99268.39;1754638;80;21045;-75
2021/05/02 03:53:10;;;;;;;3.98;2.52;;;;;;;4.47;67.61;99282.91;1742512;80;21621;-75
2021/05/02 03:55:44;;;;;;;3.92;2.70;;;;;;;4.52;67.60;99269.41;1752443;80;21168;-75
2021/05/02 03:58:13;;;;;;;4.25;2.70;;;;;;;4.56;67.67;99281.33;1751692;80;21267;-74
2021/05/02 04:00:42;;;;;;;7.37;3.70;;;;;;;4.60;67.69;99295.88;1743859;80;21310;-74
2021/05/02 04:03:36;;;;;;;4.00;2.50;;;;;;;4.67;67.80;99301.25;1770505;77;24078;-74
2021/05/02 04:06:04;;;;;;;5.60;2.90;;;;;;;4.65;67.75;99292.72;1732599;81;21068;-74
2021/05/02 04:08:30;;;;;;;;;;;;;;;4.70;67.79;99306.36;1742701;81;21412;-74
2021/05/02 04:10:58;;;;;;;3.25;2.75;;;;;;;4.75;67.89;99303.61;1736553;81;20196;-74
2021/05/02 04:13:25;;;;;;;4.60;2.77;;;;;;;4.79;67.92;99301.77;1743646;81;21250;-74
2021/05/02 04:15:52;;;;;;;5.80;3.00;;;;;;;4.85;67.94;99304.20;1734811;81;21283;-74
2021/05/02 04:18:19;;;;;;;6.50;3.27;;;;;;;4.91;67.93;99297.54;1742952;81;21120;-74
2021/05/02 04:20:46;;;;;;;6.83;3.50;;;;;;;4.97;67.98;99293.46;1736074;81;22244;-74
2021/05/02 04:23:12;;;;;;;6.95;3.05;;;;;;;5.03;67.86;99290.67;1741922;80;21227;-73
2021/05/02 04:25:39;;;;;;;4.97;3.05;;;;;;;5.07;67.90;99294.88;1735075;80;21239;-74
2021/05/02 04:28:06;;;;;;;6.58;3.50;;;;;;;5.06;67.85;99293.16;1740238;81;20993;-74
2021/05/02 04:30:34;;;;;;;5.25;2.85;;;;;;;5.07;67.87;99300.05;1735890;81;21622;-74
2021/05/02 04:33:01;;;;;;;6.90;3.02;;;;;;;5.09;67.94;99290.92;1734824;80;21256;-74
2021/05/02 04:37:27;;;;;;;6.35;2.77;;;;;;;5.13;67.94;99285.62;1793908;75;22408;-73
2021/05/02 04:39:54;;;;;;;5.35;3.02;;;;;;;5.11;67.88;99284.81;1772624;79;21017;-73
2021/05/02 04:42:21;;;;;;;5.45;3.65;;;;;;;5.13;67.86;99289.50;1772938;80;21236;-74
2021/05/02 04:44:48;;;;;;;5.87;3.40;;;;;;;5.15;67.84;99285.13;1767447;79;21007;-74
2021/05/02 04:47:19;;;;;;;4.90;2.75;;;;;;;5.14;67.81;99273.06;1765162;80;21005;-73
2021/05/02 04:49:49;;;;;;;7.47;3.02;;;;;;;5.15;67.82;99289.01;1768275;80;21064;-73
2021/05/02 04:52:17;;;;;;;5.05;3.08;;;;;;;5.19;67.82;99283.73;1766642;80;20997;-74
2021/05/02 04:54:44;;;;;;;5.92;3.80;;;;;;;5.24;67.81;99275.38;1769701;79;23048;-74
2021/05/02 04:57:11;;;;;;;4.83;3.05;;;;;;;5.26;67.79;99276.15;1764051;78;21609;-75
2021/05/02 04:59:38;;;;;;;4.72;3.27;;;;;;;5.27;67.78;99275.27;1774819;80;21032;-75
2021/05/02 05:02:06;;;;;;;5.75;3.25;;;;;;;5.30;67.77;99282.94;1765723;79;26893;-74
2021/05/02 05:04:35;;;;;;;3.85;2.50;;;;;;;5.34;67.78;99287.10;1767895;80;21187;-74
2021/05/02 05:07:06;;;;;;;9.38;2.95;;;;;;;5.38;67.76;99286.13;1772021;78;21248;-74
2021/05/02 05:09:34;;;;;;;4.92;2.83;;;;;;;5.42;67.73;99274.75;1771614;80;21781;-75
2021/05/02 05:12:01;;;;;;;4.30;2.90;;;;;;;5.45;67.69;99274.64;1767970;79;21041;-75
2021/05/02 05:14:28;;;;;;;4.75;3.40;;;;;;;5.47;67.69;99275.45;1766917;79;21204;-75
2021/05/02 05:16:55;;;;;;;4.87;2.65;;;;;;;5.51;67.61;99291.72;1769149;80;21662;-75
2021/05/02 05:19:22;;;;;;;4.92;2.77;;;;;;;5.52;67.63;99285.21;1769492;80;21569;-75
2021/05/02 05:21:50;;;;;;;6.03;3.92;;;;;;;5.57;67.65;99294.09;1769009;80;21175;-75
2021/05/02 05:24:17;;;;;;;6.03;3.15;;;;;;;5.59;67.60;99295.74;1769374;80;21139;-75
2021/05/02 05:26:45;;;;;;;6.20;3.47;;;;;;;5.66;67.58;99292.94;1771622;79;21642;-75
2021/05/02 05:29:12;;;;;;;6.28;3.17;;;;;;;5.71;67.46;99296.23;1769920;79;21623;-74
2021/05/02 05:31:39;;;;;;;10.10;3.22;;;;;;;5.77;67.48;99292.99;1766384;79;21662;-75
2021/05/02 05:34:06;;;;;;;8.80;2.95;;;;;;;5.80;67.35;99285.56;1765512;80;21642;-75
2021/05/02 05:36:33;;;;;;;4.12;2.65;;;;;;;5.84;67.35;99283.25;1773324;78;21406;-75
2021/05/02 05:39:00;;;;;;;3.80;2.60;;;;;;;5.89;67.31;99285.23;1770520;78;21191;-75
2021/05/02 05:41:27;;;;;;;6.17;3.02;;;;;;;5.95;67.17;99287.64;1772032;79;21149;-75
2021/05/02 05:43:54;;;;;;;4.80;3.05;;;;;;;6.03;67.09;99283.03;1776023;80;21273;-75
2021/05/02 05:46:21;;;;;;;4.30;2.87;;;;;;;6.12;67.00;99287.49;1769850;80;21803;-75
2021/05/02 05:48:49;;;;;;;4.40;2.80;;;;;;;6.19;66.90;99282.47;1771325;80;21615;-75
2021/05/02 05:51:15;;;;;;;;;;;;;;;6.26;66.68;99276.17;1738018;80;21172;-75
2021/05/02 05:53:42;;;;;;;6.03;2.98;;;;;;;6.31;66.42;99276.84;1766406;80;20220;-74
2021/05/02 05:56:09;;;;;;;5.30;3.27;;;;;;;6.37;66.02;99264.95;1769030;80;22394;-76
2021/05/02 05:58:37;;;;;;;5.85;3.45;;;;;;;6.37;66.02;99264.95;1773037;80;21208;-72
2021/05/02 06:01:04;;;;;;;4.20;3.08;;;;;;;6.40;65.99;99257.05;1767097;80;21228;-75
2021/05/02 06:03:31;;;;;;;5.50;3.22;;;;;;;6.42;65.86;99263.03;1769637;80;21550;-76
2021/05/02 06:05:58;;;;;;;4.37;3.10;;;;;;;6.44;65.65;99251.29;1773855;80;21211;-76
2021/05/02 06:08:25;;;;;;;5.03;3.33;;;;;;;6.47;65.72;99257.23;1762053;78;21138;-76
2021/05/02 06:10:52;;;;;;;6.92;3.15;;;;;;;6.49;65.34;99251.51;1765864;80;21398;-76
2021/05/02 06:13:19;;;;;;;4.05;3.30;;;;;;;6.51;65.05;99252.77;1766407;80;21172;-76
2021/05/02 06:15:46;;;;;;;4.25;2.98;;;;;;;6.54;65.00;99252.64;1765563;80;21579;-75
2021/05/02 06:18:14;;;;;;;4.35;3.10;;;;;;;6.58;64.58;99248.17;1744111;80;21209;-76
2021/05/02 06:20:41;;;;;;;4.97;3.08;;;;;;;6.61;64.58;99253.23;1770350;80;26038;-76
2021/05/02 06:23:08;;;;;;;4.15;3.58;;;;;;;6.64;64.17;99256.58;1772540;80;21210;-77
2021/05/02 06:25:35;;;;;;;4.72;3.72;;;;;;;6.65;63.97;99249.64;1766450;78;21139;-76
2021/05/02 06:28:02;;;;;;;5.28;3.52;;;;;;;6.66;63.70;99247.42;1769519;80;21060;-73
2021/05/02 06:30:29;;;;;;;6.15;3.72;;;;;;;6.68;63.34;99258.59;1766109;80;21030;-74
2021/05/02 06:32:56;;;;;;;6.00;3.50;;;;;;;6.68;62.94;99256.00;1763240;80;21132;-74
2021/05/02 06:35:23;;;;;;;5.33;3.87;;;;;;;6.71;62.57;99259.77;1770162;80;21101;-74
2021/05/02 06:37:50;;;;;;;5.37;3.33;;;;;;;6.75;62.79;99243.20;1775296;80;21308;-74
2021/05/02 06:40:17;;;;;;;5.80;3.45;;;;;;;6.79;62.70;99246.05;1770870;80;21065;-75
2021/05/02 06:42:45;;;;;;;5.87;3.00;;;;;;;6.81;62.49;99229.98;1769967;80;23834;-74
2021/05/02 06:45:14;;;;;;;6.12;4.00;;;;;;;6.83;62.20;99235.09;1744688;80;21559;-74
2021/05/02 06:47:41;;;;;;;5.65;3.58;;;;;;;6.85;62.11;99234.13;1773727;80;21242;-74
2021/05/02 06:50:09;;;;;;;5.12;3.17;;;;;;;6.86;62.01;99227.17;1776827;80;21658;-74
2021/05/02 06:52:36;;;;;;;6.72;3.62;;;;;;;6.90;62.09;99225.70;1771065;78;21159;-73
2021/05/02 06:55:04;;;;;;;9.33;3.33;;;;;;;6.93;61.74;99207.41;1781255;80;21678;-72
2021/05/02 06:57:32;;;;;;;4.08;2.95;;;;;;;6.95;61.61;99199.13;1776433;79;21626;-72
2021/05/02 06:59:59;;;;;;;5.20;3.70;;;;;;;6.95;61.22;99213.39;1775087;80;21146;-74
2021/05/02 07:02:27;;;;;;;5.45;3.33;;;;;;;6.95;61.00;99221.64;1779249;79;21181;-72
2021/05/02 07:04:54;;;;;;;5.97;3.47;;;;;;;6.93;60.81;99206.12;1776670;79;21218;-74
2021/05/02 07:07:21;;;;;;;5.10;3.37;;;;;;;6.93;60.91;99202.22;1744204;81;21231;-74
2021/05/02 07:09:48;;;;;;;3.95;3.10;;;;;;;6.92;60.58;99188.87;1718315;82;21249;-75
2021/05/02 07:12:15;;;;;;;7.08;3.33;;;;;;;6.91;60.44;99187.16;1775129;78;21113;-75
2021/05/02 07:14:42;;;;;;;5.55;2.95;;;;;;;6.91;60.36;99176.78;1770032;78;21165;-75
2021/05/02 07:17:09;;;;;;;4.25;3.17;;;;;;;6.93;60.29;99177.56;1769690;78;21144;-74
2021/05/02 07:19:36;;;;;;;3.58;2.87;;;;;;;6.98;60.15;99178.69;1736222;81;21188;-72
2021/05/02 07:22:05;;;;;;;5.22;3.25;;;;;;;7.01;60.22;99173.83;1720070;81;22254;-74
2021/05/02 07:24:32;;;;;;;6.90;3.40;;;;;;;7.07;59.89;99187.84;1720374;81;21206;-75
2021/05/02 07:27:00;;;;;;;8.13;2.98;;;;;;;7.07;59.76;99170.97;1707779;83;21132;-76
2021/05/02 07:29:27;;;;;;;4.60;3.33;;;;;;;7.09;59.91;99176.95;1716279;81;21084;-76
2021/05/02 07:31:54;;;;;;;4.58;3.27;;;;;;;7.16;59.88;99177.91;1721538;82;21164;-77
2021/05/02 07:34:23;;;;;;;7.05;4.30;;;;;;;7.16;59.55;99183.55;1725254;82;21228;-77
2021/05/02 07:36:53;;;;;;;4.53;3.08;;;;;;;7.14;59.50;99182.77;1698768;82;21152;-77
2021/05/02 07:39:20;;;;;;;5.58;3.62;;;;;;;7.12;59.16;99189.80;1727228;82;21654;-77
2021/05/02 07:41:48;;;;;;;5.85;3.70;;;;;;;7.07;58.92;99178.30;1727200;82;21860;-78
2021/05/02 07:44:15;;;;;;;8.23;3.98;;;;;;;7.04;59.00;99191.86;1726864;81;22524;-78
2021/05/02 07:46:42;;;;;;;7.20;3.80;;;;;;;6.99;58.71;99217.16;1726225;82;21235;-76
2021/05/02 07:49:12;;;;;;;5.17;3.70;;;;;;;6.93;58.76;99194.44;1721861;82;21197;-75
2021/05/02 07:51:38;;;;;;;7.70;4.15;;;;;;;6.89;58.52;99191.59;1719102;82;21248;-77
2021/05/02 07:54:06;;;;;;;7.72;3.90;;;;;;;6.86;58.60;99183.93;1725087;82;21096;-73
2021/05/02 07:56:33;;;;;;;6.80;3.60;;;;;;;6.81;58.46;99187.16;1718072;82;21238;-74
2021/05/02 07:59:01;;;;;;;7.70;4.08;;;;;;;6.77;58.43;99189.47;1720305;82;27065;-73
2021/05/02 08:01:30;;;;;;;5.30;3.47;;;;;;;6.74;58.38;99199.98;1713261;82;21150;-73
2021/05/02 08:03:58;;;;;;;5.60;3.62;;;;;;;6.70;58.20;99188.05;1715453;82;21164;-73
2021/05/02 08:06:25;;;;;;;6.25;3.58;;;;;;;6.67;58.21;99186.88;1717594;82;21546;-73
2021/05/02 08:08:53;;;;;;;7.72;4.30;;;;;;;6.66;58.31;99163.11;1716142;82;21331;-73
2021/05/02 08:11:20;;;;;;;8.58;4.42;;;;;;;6.64;57.95;99170.14;1719371;81;21972;-74
2021/05/02 08:13:47;;;;;;;6.45;3.40;;;;;;;6.59;58.01;99175.95;1728552;82;21239;-74
2021/05/02 08:16:16;;;;;;;5.15;3.77;;;;;;;6.61;58.03;99180.60;1717394;82;21222;-74
2021/05/02 08:18:43;;;;;;;7.72;3.40;;;;;;;6.62;58.01;99179.72;1720545;82;21201;-75
2021/05/02 08:21:10;;;;;;;4.67;3.50;;;;;;;6.62;57.82;99173.23;1718264;81;21582;-75
2021/05/02 08:23:39;;;;;;;5.35;3.65;;;;;;;6.65;57.83;99166.17;1704189;82;21243;-75
2021/05/02 08:26:06;;;;;;;5.35;3.70;;;;;;;6.67;57.80;99170.01;1711343;82;21302;-75
2021/05/02 08:28:33;;;;;;;5.55;3.40;;;;;;;6.67;57.61;99169.55;1710629;82;21260;-75
2021/05/02 08:31:00;;;;;;;;;;;;;;;6.71;57.53;99181.94;1735203;81;21227;-75
2021/05/02 08:33:27;;;;;;;3.83;2.87;;;;;;;6.76;57.57;99172.23;1710979;82;20730;-75
2021/05/02 08:35:54;;;;;;;7.78;3.35;;;;;;;6.79;57.41;99165.61;1711940;83;22190;-75
2021/05/02 08:38:24;;;;;;;4.60;3.27;;;;;;;6.85;57.54;99171.00;1713672;81;21266;-74
2021/05/02 08:40:51;;;;;;;6.47;3.42;;;;;;;6.92;57.24;99157.72;1714769;81;21234;-75
2021/05/02 08:43:19;;;;;;;4.45;3.40;;;;;;;6.98;57.27;99167.47;1690629;81;21243;-75
2021/05/02 08:45:47;;;;;;;8.25;3.37;;;;;;;7.02;57.18;99152.98;1693125;83;21240;-74
2021/05/02 08:48:14;;;;;;;5.33;3.55;;;;;;;7.05;57.18;99155.91;1682550;83;21724;-74
2021/05/02 08:50:43;;;;;;;5.47;2.98;;;;;;;7.07;57.13;99152.80;1694017;83;21223;-74
2021/05/02 08:53:10;;;;;;;5.53;3.15;;;;;;;7.07;56.73;99137.22;1722673;81;21183;-75
2021/05/02 08:55:37;;;;;;;7.05;3.47;;;;;;;7.14;56.75;99134.73;1718355;81;21607;-75
2021/05/02 08:58:04;;;;;;;3.98;3.10;;;;;;;7.14;56.75;99134.73;1722223;81;26801;-75
2021/05/02 09:00:33;;;;;;;;;;;;;;;7.23;56.76;99138.27;1727060;81;22167;-75
2021/05/02 09:03:00;;;;;;;5.25;2.87;;;;;;;7.27;56.70;99126.81;1723046;81;20303;-75
2021/05/02 09:05:27;;;;;;;4.95;3.40;;;;;;;7.27;56.32;99134.61;1723099;81;21165;-75
2021/05/02 09:07:54;;;;;;;4.72;3.25;;;;;;;7.29;56.23;99132.80;1697490;81;21265;-74
2021/05/02 09:10:21;;;;;;;4.72;3.40;;;;;;;7.30;56.39;99127.98;1722300;81;21224;-75
2021/05/02 09:13:00;;;;;;;7.40;3.22;;;;;;;7.38;56.57;99122.00;1698570;81;22175;-75
2021/05/02 09:15:27;;;;;;;6.85;3.20;;;;;;;7.45;56.35;99123.02;1724622;81;21185;-74
2021/05/02 09:18:14;;;;;;;4.95;2.87;;;;;;;7.44;55.99;99103.17;1724407;81;22219;-75
2021/05/02 09:20:51;;;;;;;4.45;2.80;;;;;;;7.47;56.34;99109.52;1719466;81;21199;-75
2021/05/02 09:23:18;;;;;;;4.28;3.00;;;;;;;7.49;56.15;99105.11;1721292;81;21161;-75
2021/05/02 09:25:53;;;;;;;3.60;2.60;;;;;;;7.49;56.22;99090.83;1720002;81;21269;-75
2021/05/02 09:28:53;;;;;;;5.03;2.77;;;;;;;7.55;56.03;99089.24;1725323;81;21054;-75
2021/05/02 09:31:24;;;;;;;4.58;2.60;;;;;;;7.57;56.31;99079.64;1720682;81;21731;-75
2021/05/02 09:33:53;;;;;;;3.20;2.62;;;;;;;7.57;55.68;99088.73;1703701;82;21294;-75
2021/05/02 09:36:22;;;;;;;3.27;2.50;;;;;;;7.51;55.39;99092.91;1703247;82;21249;-75
2021/05/02 09:38:49;;;;;;;2.92;2.35;;;;;;;7.44;55.76;99082.39;1715904;82;22580;-75
2021/05/02 09:41:17;;;;;;;6.47;3.55;;;;;;;7.50;55.79;99071.25;1716027;82;21246;-75
2021/05/02 09:43:49;;;;;;;4.20;2.75;;;;;;;7.50;55.78;99083.41;1720233;82;21036;-75
2021/05/02 09:46:30;;;;;;;3.70;2.40;;;;;;;7.45;55.48;99061.98;1717132;82;21313;-75
2021/05/02 09:49:19;;;;;;;3.45;2.47;;;;;;;7.45;55.51;99074.97;1721579;81;21811;-75
2021/05/02 09:51:52;;;;;;;3.72;2.52;;;;;;;7.32;55.39;99059.95;1726272;82;21214;-75
2021/05/02 09:54:27;;;;;;;6.65;2.83;;;;;;;7.37;55.79;99070.98;1717205;82;21619;-76
2021/05/02 09:57:02;;;;;;;4.95;3.35;;;;;;;7.45;55.79;99052.89;1719857;82;21243;-76
2021/05/02 09:59:36;;;;;;;5.10;2.62;;;;;;;7.49;55.65;99047.97;1714064;81;21470;-75
2021/05/02 10:02:14;;;;;;;6.15;2.72;;;;;;;7.49;55.73;99048.80;1717900;82;21689;-76
2021/05/02 10:04:46;;;;;;;5.05;2.60;;;;;;;7.60;55.99;99058.70;1714906;82;21211;-75
2021/05/02 10:07:21;;;;;;;4.92;2.95;;;;;;;7.69;55.65;99049.19;1719565;81;21622;-74
2021/05/02 10:09:49;;;;;;;4.97;2.72;;;;;;;7.68;55.90;99047.52;1731503;80;21200;-76
2021/05/02 10:12:16;;;;;;;5.50;3.05;;;;;;;7.77;55.96;99047.08;1717152;82;21212;-76
2021/05/02 10:14:47;;;;;;;6.28;2.70;;;;;;;7.79;56.00;99043.13;1715940;82;21214;-76
2021/05/02 10:17:14;;;;;;;6.22;2.80;;;;;;;7.80;56.05;99044.33;1717712;82;21208;-75
2021/05/02 10:19:42;;;;;;;7.08;3.20;;;;;;;7.66;55.49;99037.64;1716233;82;21254;-75
2021/05/02 10:22:10;;;;;;;;;;;;;;;7.58;55.93;99047.53;1716421;82;21127;-76
2021/05/02 10:24:37;;;;;;;5.30;2.95;;;;;;;7.54;55.89;99053.80;1718717;81;20818;-75
2021/05/02 10:27:12;;;;;;;3.90;2.85;;;;;;;7.39;56.13;99041.90;1720080;82;21203;-75
2021/05/02 10:29:41;;;;;;;4.05;2.80;;;;;;;7.33;56.31;99048.64;1718789;82;21218;-75
2021/05/02 10:32:11;;;;;;;5.30;2.70;;;;;;;7.34;56.28;99042.55;1714499;82;22486;-75
2021/05/02 10:34:43;;;;;;;4.60;2.70;;;;;;;7.27;56.39;99042.42;1720959;81;21154;-75
2021/05/02 10:37:28;;;;;;;6.65;3.00;;;;;;;7.25;56.68;99039.51;1721762;82;21159;-75
2021/05/02 10:40:13;;;;;;;6.25;2.47;;;;;;;7.19;56.69;99051.01;1718020;82;21255;-75
2021/05/02 10:42:50;;;;;;;4.00;2.80;;;;;;;7.17;56.68;99048.95;1718130;82;21677;-75
2021/05/02 10:45:41;;;;;;;5.20;2.60;;;;;;;7.11;56.82;99043.58;1719042;82;21203;-75
2021/05/02 10:48:16;;;;;;;4.95;2.83;;;;;;;7.07;57.06;99041.17;1684273;82;21252;-75
2021/05/02 10:50:46;;;;;;;4.35;2.87;;;;;;;7.00;57.17;99043.63;1709259;82;21212;-75
2021/05/02 10:53:20;;;;;;;3.00;2.37;;;;;;;6.87;57.28;99048.07;1722393;82;21211;-74
2021/05/02 10:56:04;;;;;;;4.53;2.67;;;;;;;6.82;57.45;99027.95;1714095;81;21586;-75
2021/05/02 10:58:38;;;;;;;5.92;2.80;;;;;;;6.78;57.49;99045.88;1716158;81;21255;-75
2021/05/02 11:01:09;;;;;;;7.35;2.85;;;;;;;6.70;58.10;99045.36;1715335;82;21160;-75
2021/05/02 11:03:50;;;;;;;3.42;2.65;;;;;;;6.63;57.72;99038.72;1685368;82;21214;-75
2021/05/02 11:06:41;;;;;;;5.72;2.60;;;;;;;6.53;58.62;99043.92;1714949;82;21179;-75
2021/05/02 11:09:14;;;;;;;6.03;3.00;;;;;;;6.51;58.28;99042.68;1643184;85;21315;-74
2021/05/02 11:14:27;;;;;;;4.25;2.55;;;;;;;6.54;59.33;99052.09;1791060;78;23434;-75
2021/05/02 11:17:02;;;;;;;3.75;2.60;;;;;;;6.42;59.74;99054.28;1767109;79;21717;-76
2021/05/02 11:19:38;;;;;;;4.15;2.40;;;;;;;6.35;59.54;99051.98;1770265;79;21199;-76
2021/05/02 11:22:11;;;;;;;4.40;2.85;;;;;;;6.31;59.94;99051.28;1768124;80;21583;-75
2021/05/02 11:24:51;;;;;;;4.50;2.83;;;;;;;6.31;59.34;99046.09;1766871;80;21104;-74
2021/05/02 11:27:36;;;;;;;5.65;2.90;;;;;;;6.34;59.45;99051.15;1767164;80;21369;-76
2021/05/02 11:30:11;;;;;;;9.53;3.37;;;;;;;6.39;60.10;99055.70;1748645;80;21754;-75
2021/05/02 11:32:40;;;;;;;4.95;2.70;;;;;;;6.34;59.28;99055.04;1767965;79;21268;-75
2021/05/02 11:35:19;;;;;;;4.37;2.87;;;;;;;6.38;59.27;99055.29;1774275;79;21596;-76
2021/05/02 11:38:00;;;;;;;3.40;3.08;;;;;;;6.42;59.72;99056.87;1770906;79;21204;-74
2021/05/02 11:40:36;;;;;;;3.58;2.50;;;;;;;6.44;59.39;99049.88;1775281;79;21697;-74
2021/05/02 11:43:17;;;;;;;5.30;2.70;;;;;;;6.41;60.58;99051.30;1773951;79;21248;-77
2021/05/02 11:45:55;;;;;;;8.05;3.40;;;;;;;6.39;59.72;99045.79;1748148;80;21274;-78
2021/05/02 11:48:32;;;;;;;6.05;2.80;;;;;;;6.37;59.66;99035.47;1769022;80;21122;-76
2021/05/02 11:51:04;;;;;;;4.25;2.80;;;;;;;6.37;59.79;99032.87;1769583;79;24503;-75
2021/05/02 11:53:36;;;;;;;3.83;2.70;;;;;;;6.41;60.06;99034.45;1769275;80;21821;-73
2021/05/02 11:56:30;;;;;;;7.45;2.87;;;;;;;6.41;60.14;99027.97;1742429;80;21246;-72
2021/05/02 11:59:09;;;;;;;4.62;3.08;;;;;;;6.44;60.04;99030.43;1771937;80;21270;-76
2021/05/02 12:04:18;;;;;;;4.95;3.05;;;;;;;6.46;60.47;99031.19;1792827;77;22461;-74
2021/05/02 12:06:47;;;;;;;5.87;3.45;;;;;;;6.33;60.77;99015.77;1770512;79;21050;-76
2021/05/02 12:09:19;;;;;;;4.92;3.12;;;;;;;6.22;60.89;99015.36;1769436;80;21204;-75